Albany, Missouri
Current Conditions -  °F | °C
As of 8:53 PM on Thursday 27 Nov 2014 (Local Time) from KLWD Reporting Station
Clear Clear  
Wind Chill: 13°   Ceiling: Unl
Heat Index: 21°   Visibility: 10mi
Dew Point: 14°   Wind: 6mph
Humidity: 74%   Direction: 140°SE
Pressure: 30.32"   Gusts: NA
Location:  40.25°N, 94.33°W
Report Text: KLWD 280253Z AUTO 14005KT 10SM CLR M06/M10 A3032 RMK AO2 SLP286 T10611100 56022
Loading
Personal Weather Stations






























Interactive Weather Map New forecast layout! Learn more

10-Day Weather Forecast

Advertisements
Track Severe Weather on mobile